createdAt,value
2023-12-11T00:00:00.000Z,53.93
2023-12-11T00:15:00.000Z,58.45
2023-12-11T00:30:00.000Z,58.29
2023-12-11T00:45:00.000Z,66.81
2023-12-11T01:00:00.000Z,74.2
2023-12-11T01:15:00.000Z,79.55
2023-12-11T01:30:00.000Z,81.11
2023-12-11T01:45:00.000Z,81.89
2023-12-11T02:00:00.000Z,83
2023-12-11T02:15:00.000Z,84.01
2023-12-11T02:30:00.000Z,85.39
2023-12-11T02:45:00.000Z,85.91
2023-12-11T03:00:00.000Z,86.62
2023-12-11T03:15:00.000Z,86.88
2023-12-11T03:30:00.000Z,86.98
2023-12-11T03:45:00.000Z,87.76
2023-12-11T04:00:00.000Z,87.98
2023-12-11T04:15:00.000Z,87.87
2023-12-11T04:30:00.000Z,87.86
2023-12-11T04:45:00.000Z,87.95
2023-12-11T05:00:00.000Z,87.76
2023-12-11T05:15:00.000Z,87.48
2023-12-11T05:30:00.000Z,87.89
2023-12-11T05:45:00.000Z,87.7
2023-12-11T06:00:00.000Z,87.57
2023-12-11T06:15:00.000Z,87.66
2023-12-11T06:30:00.000Z,87.17
2023-12-11T06:45:00.000Z,86.83
2023-12-11T07:00:00.000Z,86.98
2023-12-11T07:15:00.000Z,86.35
2023-12-11T07:30:00.000Z,85.66
2023-12-11T07:45:00.000Z,85.16
2023-12-11T08:00:00.000Z,84.02
2023-12-11T08:15:00.000Z,83.16
2023-12-11T08:30:00.000Z,83.06
2023-12-11T08:45:00.000Z,85
2023-12-11T09:00:00.000Z,86.08
2023-12-11T09:15:00.000Z,85.91
2023-12-11T09:30:00.000Z,84.98
2023-12-11T09:45:00.000Z,84.05
2023-12-11T10:00:00.000Z,83.02
2023-12-11T10:15:00.000Z,81.21
2023-12-11T10:30:00.000Z,80.26
2023-12-11T10:45:00.000Z,81.34
2023-12-11T11:00:00.000Z,81.52
2023-12-11T11:15:00.000Z,81.35
2023-12-11T11:30:00.000Z,80.71
2023-12-11T11:45:00.000Z,81.88
2023-12-11T12:00:00.000Z,82.41
2023-12-11T12:15:00.000Z,82.31
2023-12-11T12:30:00.000Z,82.73
2023-12-11T12:45:00.000Z,83.51
2023-12-11T13:00:00.000Z,82.83
2023-12-11T13:15:00.000Z,82.93
2023-12-11T13:30:00.000Z,82.83
2023-12-11T13:45:00.000Z,81.8
2023-12-11T14:00:00.000Z,81.79
2023-12-11T14:15:00.000Z,81.91
2023-12-11T14:30:00.000Z,81.23
2023-12-11T14:45:00.000Z,78.15
2023-12-11T15:00:00.000Z,77.26
2023-12-11T15:15:00.000Z,76.86
2023-12-11T15:30:00.000Z,77.39
2023-12-11T15:45:00.000Z,77.25
2023-12-11T16:00:00.000Z,76.27
2023-12-11T16:15:00.000Z,76.89
2023-12-11T16:30:00.000Z,78.25
2023-12-11T16:45:00.000Z,77.7
2023-12-11T17:00:00.000Z,78.35
2023-12-11T17:15:00.000Z,79.1
2023-12-11T17:30:00.000Z,77.77
2023-12-11T17:45:00.000Z,78.61
2023-12-11T18:00:00.000Z,76.96
2023-12-11T18:15:00.000Z,74.77
2023-12-11T18:30:00.000Z,74.45
2023-12-11T18:45:00.000Z,74.43
2023-12-11T19:00:00.000Z,74.3
2023-12-11T19:15:00.000Z,73.53
2023-12-11T19:30:00.000Z,72.98
2023-12-11T19:45:00.000Z,73.57
2023-12-11T20:00:00.000Z,73.87
2023-12-11T20:15:00.000Z,74.29
2023-12-11T20:30:00.000Z,74.15
2023-12-11T20:45:00.000Z,74.06
2023-12-11T21:00:00.000Z,74.1
2023-12-11T21:15:00.000Z,73.41
2023-12-11T21:30:00.000Z,73.54
2023-12-11T21:45:00.000Z,74.45
2023-12-11T22:00:00.000Z,74.71
2023-12-11T22:15:00.000Z,75.56
2023-12-11T22:30:00.000Z,75.9
2023-12-11T22:45:00.000Z,76.69
2023-12-11T23:00:00.000Z,77.26
2023-12-11T23:15:00.000Z,78.24
2023-12-11T23:30:00.000Z,79.1
2023-12-11T23:45:00.000Z,79.62
